createdAt,value
2022-10-06T00:01:21.525Z,82.15
2022-10-06T00:03:48.103Z,82.15
2022-10-06T00:06:18.639Z,82.99
2022-10-06T00:08:58.255Z,82.71
2022-10-06T00:11:25.250Z,84.22
2022-10-06T00:14:31.137Z,83.07
2022-10-06T00:16:57.712Z,82.80
2022-10-06T00:19:29.383Z,82.78
2022-10-06T00:21:56.016Z,82.32
2022-10-06T00:24:32.309Z,82.73
2022-10-06T00:27:08.331Z,83.91
2022-10-06T00:29:42.469Z,83.56
2022-10-06T00:32:11.997Z,83.32
2022-10-06T00:34:38.586Z,84.25
2022-10-06T00:37:07.665Z,84.52
2022-10-06T00:39:34.152Z,84.51
2022-10-06T00:42:01.011Z,83.28
2022-10-06T00:44:33.177Z,84.64
2022-10-06T00:46:59.798Z,83.04
2022-10-06T00:49:31.027Z,83.89
2022-10-06T00:52:11.360Z,84.99
2022-10-06T00:54:39.447Z,86.22
2022-10-06T00:57:06.826Z,85.11
2022-10-06T00:59:34.482Z,85.79
2022-10-06T01:02:04.304Z,85.42
2022-10-06T01:04:33.794Z,84.49
2022-10-06T01:07:04.531Z,85.56
2022-10-06T01:09:48.640Z,84.68
2022-10-06T01:12:16.783Z,85.42
2022-10-06T01:14:43.579Z,84.20
2022-10-06T01:17:37.368Z,84.76
2022-10-06T01:20:11.999Z,85.82
2022-10-06T01:22:55.736Z,85.07
2022-10-06T01:25:50.318Z,84.57
2022-10-06T01:28:19.046Z,84.81
2022-10-06T01:31:12.641Z,84.18
2022-10-06T01:33:47.587Z,84.30
2022-10-06T01:36:21.684Z,83.88
2022-10-06T01:38:48.243Z,84.76
2022-10-06T01:41:14.883Z,84.41
2022-10-06T01:43:41.375Z,84.91
2022-10-06T01:46:08.007Z,85.94
2022-10-06T01:48:35.883Z,85.06
2022-10-06T01:51:02.407Z,84.87
2022-10-06T01:53:32.106Z,85.83
2022-10-06T01:55:59.542Z,85.50
2022-10-06T01:58:26.546Z,84.93
2022-10-06T02:00:54.208Z,85.79
2022-10-06T02:03:20.741Z,85.78
2022-10-06T02:05:47.258Z,84.85
2022-10-06T02:08:13.757Z,84.06
2022-10-06T02:10:40.369Z,84.19
2022-10-06T02:13:06.925Z,84.64
2022-10-06T02:15:33.507Z,84.78
2022-10-06T02:18:00.062Z,84.69
2022-10-06T02:20:26.696Z,85.37
2022-10-06T02:22:53.259Z,85.27
2022-10-06T02:25:19.789Z,86.58
2022-10-06T02:27:47.324Z,86.96
2022-10-06T02:30:16.866Z,85.93
2022-10-06T02:32:44.171Z,87.67
2022-10-06T02:35:12.877Z,86.76
2022-10-06T02:37:41.469Z,86.84
2022-10-06T02:40:09.020Z,87.35
2022-10-06T02:42:37.495Z,88.06
2022-10-06T02:45:08.069Z,86.59
2022-10-06T02:47:36.561Z,87.99
2022-10-06T02:50:06.023Z,87.04
2022-10-06T02:52:35.258Z,86.93
2022-10-06T02:55:09.277Z,86.31
2022-10-06T02:57:47.736Z,86.25
2022-10-06T03:00:15.636Z,87.33
2022-10-06T03:03:27.801Z,87.21
2022-10-06T03:06:06.396Z,86.95
2022-10-06T03:08:33.132Z,88.13
2022-10-06T03:11:01.055Z,88.18
2022-10-06T03:13:28.040Z,88.28
2022-10-06T03:15:57.083Z,87.38
2022-10-06T03:18:23.873Z,87.87
2022-10-06T03:20:51.055Z,87.57
2022-10-06T03:23:27.867Z,88.80
2022-10-06T03:26:08.728Z,89.39
2022-10-06T03:28:35.306Z,89.93
2022-10-06T03:31:03.191Z,92.98
2022-10-06T03:33:30.557Z,91.97
2022-10-06T03:36:15.644Z,91.99
2022-10-06T03:38:43.128Z,93.03
2022-10-06T03:41:13.477Z,93.55
2022-10-06T03:43:42.592Z,96.30
2022-10-06T03:46:20.346Z,95.56
2022-10-06T03:48:48.808Z,96.41
2022-10-06T03:51:29.877Z,97.38
2022-10-06T03:53:59.563Z,96.43
2022-10-06T03:56:35.281Z,98.82
2022-10-06T03:59:04.464Z,96.78
2022-10-06T04:01:39.724Z,94.82
2022-10-06T04:04:06.923Z,95.71
2022-10-06T04:06:36.486Z,95.24
2022-10-06T04:09:05.366Z,96.22
2022-10-06T04:11:34.628Z,97.15
2022-10-06T04:14:03.585Z,96.11
2022-10-06T04:16:32.771Z,94.77
2022-10-06T04:19:01.570Z,95.80
2022-10-06T04:21:30.475Z,94.17
2022-10-06T04:23:58.718Z,94.06
2022-10-06T04:26:31.246Z,88.83
2022-10-06T04:29:08.384Z,86.52
2022-10-06T04:31:37.318Z,86.89
2022-10-06T04:34:09.267Z,86.80
2022-10-06T04:40:43.593Z,84.29
2022-10-06T04:43:10.057Z,84.47
2022-10-06T04:45:36.559Z,83.13
2022-10-06T04:48:03.162Z,83.05
2022-10-06T04:50:29.593Z,81.99
2022-10-06T04:52:56.819Z,81.83
2022-10-06T04:55:24.321Z,83.15
2022-10-06T04:58:19.518Z,82.22
2022-10-06T05:00:50.882Z,81.34
2022-10-06T05:03:17.607Z,79.99
2022-10-06T05:05:49.704Z,78.70
2022-10-06T05:08:20.509Z,78.22
2022-10-06T05:11:32.107Z,79.55
2022-10-06T05:17:25.079Z,79.67
2022-10-06T05:19:54.453Z,78.88
2022-10-06T05:26:12.437Z,77.46
2022-10-06T05:28:57.675Z,77.63
2022-10-06T05:39:04.942Z,73.85
2022-10-06T05:41:33.231Z,74.00
2022-10-06T05:44:00.279Z,73.20
2022-10-06T05:46:29.661Z,71.24
2022-10-06T05:48:58.615Z,73.11
2022-10-06T05:51:30.665Z,72.02
2022-10-06T05:54:01.044Z,72.44
2022-10-06T05:56:30.450Z,73.40
2022-10-06T05:58:58.115Z,73.97
2022-10-06T06:01:30.372Z,73.42
2022-10-06T06:04:00.480Z,73.37
2022-10-06T06:06:52.750Z,73.31
2022-10-06T06:09:21.344Z,73.90
2022-10-06T06:11:54.881Z,73.69
2022-10-06T06:25:25.367Z,72.05
2022-10-06T06:28:03.600Z,74.34
2022-10-06T06:30:58.673Z,75.64
2022-10-06T06:33:44.017Z,74.61
2022-10-06T07:02:39.106Z,76.72
2022-10-06T07:05:09.692Z,77.01
2022-10-06T07:07:43.883Z,77.14
2022-10-06T07:10:18.188Z,77.38
2022-10-06T07:15:56.279Z,78.29
2022-10-06T07:18:47.939Z,77.75
2022-10-06T07:24:47.624Z,76.38
2022-10-06T07:27:18.757Z,76.99
2022-10-06T07:30:08.095Z,77.38
2022-10-06T07:32:34.673Z,77.24
2022-10-06T07:35:27.009Z,75.61
2022-10-06T07:45:52.243Z,75.36
2022-10-06T09:05:01.208Z,66.58
2022-10-06T09:07:49.650Z,65.83
2022-10-06T09:11:21.778Z,63.39
2022-10-06T09:14:32.131Z,63.48
2022-10-06T09:21:11.704Z,63.05
2022-10-06T09:24:31.989Z,61.65
2022-10-06T09:37:38.653Z,60.08
2022-10-06T10:04:08.532Z,56.70
2022-10-06T13:26:36.226Z,47.71
2022-10-06T13:37:00.976Z,49.35
2022-10-06T13:42:24.559Z,46.51
2022-10-06T13:44:58.694Z,48.13
2022-10-06T13:47:29.039Z,47.50
2022-10-06T13:50:10.610Z,48.77
2022-10-06T13:52:40.223Z,47.26
2022-10-06T13:55:33.520Z,46.28
2022-10-06T13:58:06.545Z,47.64
2022-10-06T14:00:51.294Z,45.99
2022-10-06T14:03:24.661Z,45.22
2022-10-06T14:06:04.869Z,46.56
2022-10-06T14:08:31.590Z,46.66
2022-10-06T14:11:03.808Z,44.98
2022-10-06T14:17:35.668Z,48.56
2022-10-06T14:20:25.046Z,47.84
2022-10-06T14:22:51.510Z,48.53
2022-10-06T14:26:17.237Z,47.41
2022-10-06T14:28:55.143Z,48.17
2022-10-06T14:42:17.966Z,46.47
2022-10-06T14:45:25.457Z,48.18
2022-10-06T14:47:51.948Z,47.24
2022-10-06T14:50:19.767Z,46.11
2022-10-06T14:53:11.351Z,44.42
2022-10-06T14:56:24.479Z,44.49
2022-10-06T14:59:13.016Z,45.25
2022-10-06T15:01:44.363Z,46.40
2022-10-06T15:04:18.586Z,47.80
2022-10-06T15:07:05.098Z,47.03
2022-10-06T15:09:32.585Z,47.50
2022-10-06T15:12:02.431Z,47.37
2022-10-06T15:14:32.101Z,48.07
2022-10-06T15:17:02.232Z,46.61
2022-10-06T15:20:37.960Z,45.14
2022-10-06T15:23:07.073Z,47.58
2022-10-06T15:26:36.162Z,47.37
2022-10-06T15:29:23.181Z,46.30
2022-10-06T15:31:55.369Z,47.13
2022-10-06T15:34:25.490Z,46.84
2022-10-06T15:36:54.339Z,48.13
2022-10-06T15:39:23.948Z,49.10
2022-10-06T15:42:00.474Z,50.35
2022-10-06T15:47:48.819Z,48.59
2022-10-06T15:50:19.008Z,48.06
2022-10-06T15:52:45.944Z,50.12
2022-10-06T15:55:12.382Z,49.82
2022-10-06T15:57:38.948Z,51.52
2022-10-06T16:00:06.126Z,59.73
2022-10-06T16:02:36.588Z,60.79
2022-10-06T16:05:03.501Z,59.28
2022-10-06T16:07:34.936Z,59.65
2022-10-06T16:13:52.753Z,61.88
2022-10-06T16:16:19.392Z,59.79
2022-10-06T16:18:46.238Z,59.26
2022-10-06T16:21:12.781Z,61.22
2022-10-06T16:23:45.674Z,61.40
2022-10-06T16:26:12.798Z,62.58
2022-10-06T16:41:06.767Z,65.19
2022-10-06T16:44:27.080Z,68.66
2022-10-06T16:47:36.127Z,69.34
2022-10-06T16:57:27.171Z,69.52
2022-10-06T17:00:26.253Z,69.33
2022-10-06T17:02:59.543Z,69.26
2022-10-06T17:12:07.241Z,71.41
2022-10-06T17:14:53.180Z,71.28
2022-10-06T17:18:15.784Z,72.43
2022-10-06T17:21:15.602Z,73.86
2022-10-06T17:24:28.941Z,73.79
2022-10-06T17:27:18.803Z,72.53
2022-10-06T17:36:57.266Z,74.00
2022-10-06T17:39:35.566Z,74.62
2022-10-06T20:35:41.180Z,86.52
2022-10-06T20:38:09.272Z,88.22
2022-10-06T20:52:12.116Z,90.32
2022-10-06T22:20:05.531Z,90.92
2022-10-06T22:22:32.294Z,92.26
2022-10-06T22:24:59.439Z,92.32
2022-10-06T22:27:26.158Z,91.73
2022-10-06T22:29:52.643Z,92.14
2022-10-06T22:32:19.797Z,93.80
2022-10-06T22:34:46.293Z,93.03
2022-10-06T22:37:12.942Z,90.03
2022-10-06T22:39:39.540Z,90.61
2022-10-06T22:42:06.246Z,91.34
2022-10-06T22:44:32.773Z,91.82
2022-10-06T22:46:59.512Z,91.01
2022-10-06T22:49:26.100Z,90.88
2022-10-06T22:51:52.673Z,92.58
2022-10-06T22:54:19.771Z,94.53
2022-10-06T22:56:46.369Z,92.69
2022-10-06T22:59:13.063Z,90.17
2022-10-06T23:01:39.941Z,89.69
2022-10-06T23:04:06.502Z,90.48
2022-10-06T23:06:33.749Z,90.54
2022-10-06T23:09:00.300Z,89.56
2022-10-06T23:11:27.346Z,91.29
2022-10-06T23:13:54.129Z,91.24
2022-10-06T23:16:21.121Z,91.08
2022-10-06T23:18:48.555Z,89.53
2022-10-06T23:21:21.808Z,90.38
2022-10-06T23:23:51.046Z,92.73
2022-10-06T23:26:19.095Z,92.34
2022-10-06T23:28:47.057Z,90.92
2022-10-06T23:31:13.682Z,89.44
2022-10-06T23:33:40.276Z,92.85
2022-10-06T23:36:11.923Z,90.80
2022-10-06T23:38:39.451Z,89.21
2022-10-06T23:41:06.857Z,88.90
2022-10-06T23:43:33.834Z,89.68
2022-10-06T23:46:01.056Z,88.17
2022-10-06T23:48:27.809Z,90.07
2022-10-06T23:51:02.583Z,92.43
2022-10-06T23:53:30.948Z,90.06
2022-10-06T23:55:58.409Z,88.34
2022-10-06T23:58:25.351Z,91.73
